Terminal Aerodrome Forecast
Issued by NWS

Home | Current Version | Previous Version | Text Only | Print | Product List | Glossary On
Versions: 1 2 3 4 5 6 7 8 9 10 11 12
000
FTUS45 KRIW 311720
TAFCPR
TAF
KCPR 311720Z 3118/0118 03008KT P6SM FEW110
     FM312200 24013G21KT P6SM VCTS SCT090CB BKN120
     FM010300 22008KT P6SM SCT100=

USA.gov is the U.S. government's official web portal to all federal, state and local government web resources and services.